Time;durP1;ratioP1;P1;durP2;ratioP2;P2;SDS_P1;SDS_P2;PMS_P1;PMS_P2;Temp;Humidity;BMP_temperature;BMP_pressure;BME280_temperature;BME280_humidity;BME280_pressure;Samples;Min_cycle;Max_cycle;Signal;HPM_P1;HPM_P2
2021/01/29 00:00:58;;;;;;;1.47;1.33;;;8.00;99.90;;;8.72;100.00;96816.72;4996056;28;20827;-79
2021/01/29 00:03:29;;;;;;;1.70;1.17;;;8.00;99.90;;;8.71;100.00;96804.72;4998537;28;20460;-79
2021/01/29 00:06:03;;;;;;;4.80;1.20;;;8.00;99.90;;;8.70;100.00;96808.31;4998722;28;20472;-79
2021/01/29 00:08:33;;;;;;;2.70;1.20;;;8.00;99.90;;;8.71;100.00;96794.28;4995458;28;20470;-79
2021/01/29 00:11:02;;;;;;;2.60;1.20;;;8.00;99.90;;;8.70;100.00;96795.28;4996868;28;20763;-79
2021/01/29 00:13:31;;;;;;;11.83;1.30;;;8.00;99.90;;;8.66;100.00;96796.69;4999620;28;20850;-79
2021/01/29 00:15:58;;;;;;;3.03;1.37;;;7.90;99.90;;;8.66;100.00;96779.25;4998765;28;21727;-79
2021/01/29 00:18:26;;;;;;;2.47;1.10;;;8.00;99.90;;;8.66;100.00;96774.06;4999393;28;20463;-79
2021/01/29 00:20:56;;;;;;;4.00;1.47;;;8.00;99.90;;;8.62;100.00;96770.25;4999122;28;20990;-79
2021/01/29 00:23:23;;;;;;;2.30;1.20;;;7.90;99.90;;;8.54;100.00;96753.03;4999472;28;20510;-79
2021/01/29 00:25:53;;;;;;;3.93;1.20;;;7.80;99.90;;;8.54;100.00;96758.25;4997757;28;20486;-79
2021/01/29 00:28:23;;;;;;;3.07;1.10;;;7.80;99.90;;;8.56;100.00;96753.66;4999331;28;20471;-80
2021/01/29 00:30:52;;;;;;;1.70;1.23;;;7.90;99.90;;;8.61;100.00;96747.03;4999426;28;20568;-79
2021/01/29 00:33:23;;;;;;;2.60;1.37;;;8.00;99.90;;;8.65;100.00;96742.97;4998658;28;20471;-79
2021/01/29 00:35:52;;;;;;;2.50;1.10;;;8.00;99.90;;;8.62;100.00;96739.00;4996738;28;20481;-79
2021/01/29 00:38:22;;;;;;;2.27;1.27;;;7.90;99.90;;;8.65;100.00;96737.75;4997649;28;20474;-79
2021/01/29 00:40:50;;;;;;;2.27;1.20;;;7.90;99.90;;;8.64;100.00;96731.78;4998647;28;20475;-80
2021/01/29 00:43:17;;;;;;;1.53;1.10;;;7.90;99.90;;;8.64;100.00;96726.56;4999264;28;20504;-79
2021/01/29 00:45:46;;;;;;;2.23;1.30;;;7.90;99.90;;;8.59;100.00;96721.97;4997056;28;20486;-79
2021/01/29 00:48:14;;;;;;;2.63;1.13;;;7.80;99.90;;;8.63;100.00;96716.34;4999234;28;20522;-79
2021/01/29 00:50:42;;;;;;;3.40;1.20;;;7.90;99.90;;;8.58;100.00;96712.53;4997618;28;20541;-79
2021/01/29 00:53:10;;;;;;;3.70;1.40;;;7.90;99.90;;;8.60;100.00;96704.53;4997884;28;20463;-79
2021/01/29 00:55:39;;;;;;;5.90;1.50;;;7.90;99.90;;;8.59;100.00;96697.72;4998545;28;20917;-79
2021/01/29 00:58:06;;;;;;;1.37;1.07;;;7.90;99.90;;;8.61;100.00;96694.91;4998356;28;20471;-79
2021/01/29 01:00:34;;;;;;;1.17;1.07;;;7.90;99.90;;;8.53;100.00;96685.53;4996192;28;20617;-79
2021/01/29 01:03:02;;;;;;;4.50;1.37;;;7.80;99.90;;;8.57;100.00;96682.28;4999685;28;20612;-79
2021/01/29 01:05:30;;;;;;;2.73;1.00;;;7.80;99.90;;;8.56;100.00;96677.28;4998751;28;20554;-79
2021/01/29 01:07:57;;;;;;;4.97;1.50;;;7.80;99.90;;;8.50;100.00;96667.72;4998463;28;20460;-79
2021/01/29 01:10:26;;;;;;;4.90;1.10;;;7.70;99.90;;;8.47;100.00;96668.91;5000035;28;21000;-80
2021/01/29 01:12:56;;;;;;;2.70;1.30;;;7.70;99.90;;;8.49;100.00;96653.88;4998357;28;20971;-79
2021/01/29 01:15:26;;;;;;;5.17;1.37;;;7.70;99.90;;;8.48;100.00;96652.28;4998559;28;20471;-79
2021/01/29 01:17:57;;;;;;;3.47;1.10;;;7.70;99.90;;;8.46;100.00;96654.31;4998862;28;20861;-79
2021/01/29 01:20:28;;;;;;;2.47;1.17;;;7.70;99.90;;;8.50;100.00;96636.44;4998477;28;21047;-80
2021/01/29 01:22:57;;;;;;;1.93;1.10;;;7.70;99.90;;;8.50;100.00;96631.25;4996275;28;21083;-81
2021/01/29 01:25:25;;;;;;;3.37;1.30;;;7.70;99.90;;;8.46;100.00;96623.03;4998645;28;20566;-79
2021/01/29 01:27:56;;;;;;;5.00;1.93;;;7.70;99.90;;;8.44;100.00;96608.63;4999308;28;20499;-79
2021/01/29 01:30:28;;;;;;;11.93;1.20;;;7.60;99.90;;;8.44;100.00;96600.78;4998752;28;20522;-79
2021/01/29 01:32:57;;;;;;;8.00;1.67;;;7.60;99.90;;;8.43;100.00;96600.03;4999673;28;20957;-79
2021/01/29 01:35:25;;;;;;;7.20;1.73;;;7.60;99.90;;;8.45;100.00;96584.97;4998213;28;20486;-79
2021/01/29 01:37:54;;;;;;;11.80;1.50;;;7.70;99.90;;;8.43;100.00;96587.00;4998688;28;20466;-79
2021/01/29 01:40:29;;;;;;;2.07;1.37;;;7.70;99.90;;;8.42;100.00;96577.59;4998058;28;20464;-79
2021/01/29 01:42:58;;;;;;;1.97;1.30;;;7.60;99.90;;;8.43;100.00;96573.19;4997884;28;21032;-79
2021/01/29 01:46:05;;;;;;;2.53;1.47;;;7.60;99.90;;;8.44;100.00;96564.34;4996607;28;20495;-79
2021/01/29 01:49:05;;;;;;;3.50;1.70;;;7.60;99.90;;;8.46;100.00;96560.53;4996477;28;20475;-79
2021/01/29 01:51:42;;;;;;;4.33;1.23;;;7.70;99.90;;;8.42;100.00;96551.53;4988843;28;20490;-79
2021/01/29 01:54:22;;;;;;;3.37;1.47;;;7.60;99.90;;;8.45;100.00;96545.91;4997459;28;20844;-79
2021/01/29 01:56:54;;;;;;;4.40;1.67;;;7.70;99.90;;;8.42;100.00;96538.50;4998046;28;20976;-79
2021/01/29 01:59:35;;;;;;;2.23;1.80;;;7.60;99.90;;;8.48;100.00;96523.84;4998044;28;20451;-79
2021/01/29 02:02:06;;;;;;;2.50;1.60;;;7.90;99.90;;;8.45;100.00;96519.84;4997337;28;20499;-79
2021/01/29 02:04:40;;;;;;;2.57;1.50;;;7.80;99.90;;;8.48;100.00;96508.22;4997355;28;20549;-79
2021/01/29 02:07:23;;;;;;;1.90;1.50;;;7.80;99.90;;;8.52;100.00;96504.97;4999111;28;20478;-80
2021/01/29 02:09:51;;;;;;;3.53;1.40;;;7.80;99.90;;;8.52;100.00;96502.38;4998370;28;20468;-79
2021/01/29 02:12:20;;;;;;;5.33;1.40;;;7.80;99.90;;;8.57;100.00;96501.75;4996903;28;20467;-79
2021/01/29 02:14:48;;;;;;;3.20;1.50;;;8.00;99.90;;;8.62;100.00;96501.09;4995636;28;20455;-79
2021/01/29 02:17:34;;;;;;;2.87;1.37;;;8.00;99.90;;;8.66;100.00;96500.47;4994613;28;20471;-79
2021/01/29 02:21:07;;;;;;;1.10;1.00;;;8.10;99.90;;;8.71;100.00;96497.22;4998764;28;20478;-80
2021/01/29 02:24:40;;;;;;;3.67;1.50;;;8.10;99.90;;;8.72;100.00;96483.16;4979432;28;20541;-79
2021/01/29 02:27:33;;;;;;;1.97;1.10;;;8.20;99.90;;;8.75;100.00;96480.13;4998114;28;20463;-79
2021/01/29 02:30:48;;;;;;;2.80;1.40;;;8.20;99.90;;;8.79;100.00;96478.69;4997520;28;20557;-80
2021/01/29 02:34:10;;;;;;;3.03;1.27;;;8.20;99.90;;;8.81;100.00;96466.25;4996836;28;20819;-79
2021/01/29 02:37:32;;;;;;;2.10;1.13;;;8.20;99.90;;;8.85;100.00;96462.22;4995931;28;20464;-79
2021/01/29 02:40:26;;;;;;;1.97;1.13;;;8.30;99.90;;;8.88;100.00;96446.94;4995733;28;20483;-79
2021/01/29 02:43:45;;;;;;;2.50;1.10;;;8.40;99.90;;;8.89;100.00;96432.88;4993706;28;20509;-80
2021/01/29 02:46:27;;;;;;;1.17;1.07;;;8.40;99.90;;;8.94;100.00;96424.44;4989241;28;20464;-80
2021/01/29 02:49:05;;;;;;;1.47;1.10;;;8.50;99.90;;;8.95;100.00;96420.81;4997161;28;20463;-79
2021/01/29 02:51:42;;;;;;;1.10;0.90;;;8.50;99.90;;;9.00;100.00;96413.91;4995462;28;20467;-79
2021/01/29 02:54:19;;;;;;;1.30;0.93;;;8.50;99.90;;;9.02;100.00;96405.91;4998631;28;20450;-79
2021/01/29 02:56:57;;;;;;;5.07;1.00;;;8.50;99.90;;;9.03;100.00;96400.44;4996689;28;20471;-79
2021/01/29 02:59:36;;;;;;;1.00;0.90;;;8.50;99.90;;;9.10;100.00;96387.34;4998069;28;20478;-79
2021/01/29 03:02:12;;;;;;;3.30;1.33;;;8.70;99.90;;;9.13;100.00;96386.13;4997119;28;20994;-79
2021/01/29 03:04:55;;;;;;;4.40;0.90;;;8.60;99.90;;;9.17;100.00;96374.22;4995119;28;21073;-80
2021/01/29 03:07:33;;;;;;;1.10;0.80;;;8.70;99.90;;;9.20;100.00;96366.75;4997028;28;20530;-79
2021/01/29 03:10:09;;;;;;;1.10;0.77;;;8.80;99.90;;;9.20;100.00;96356.31;4996611;28;20477;-79
2021/01/29 03:12:43;;;;;;;1.00;0.70;;;8.70;99.90;;;9.22;100.00;96341.28;4996798;28;20470;-80
2021/01/29 03:15:20;;;;;;;1.00;0.90;;;8.70;99.90;;;9.23;100.00;96339.47;4997450;28;20522;-79
2021/01/29 03:17:55;;;;;;;2.80;1.13;;;8.80;99.90;;;9.22;100.00;96330.84;4996809;28;20462;-80
2021/01/29 03:20:31;;;;;;;0.87;0.83;;;8.70;99.90;;;9.26;100.00;96334.59;4997133;28;20470;-79
2021/01/29 03:23:07;;;;;;;0.80;0.80;;;8.70;99.90;;;9.28;100.00;96321.31;4993826;28;20546;-80
2021/01/29 03:25:40;;;;;;;1.97;0.97;;;8.70;99.90;;;9.28;100.00;96311.69;4997189;28;20514;-79
2021/01/29 03:28:16;;;;;;;0.80;0.70;;;8.80;99.90;;;9.30;100.00;96303.66;4997712;28;20447;-79
2021/01/29 03:30:49;;;;;;;1.00;0.90;;;8.80;99.90;;;9.29;100.00;96297.63;4996874;28;20845;-79
2021/01/29 03:33:22;;;;;;;1.00;0.90;;;8.80;99.90;;;9.32;100.00;96289.38;4996944;28;20616;-80
2021/01/29 03:35:59;;;;;;;1.20;0.87;;;8.90;99.90;;;9.32;100.00;96285.97;4996575;28;20462;-80
2021/01/29 03:38:36;;;;;;;1.33;0.90;;;8.90;99.90;;;9.34;100.00;96269.06;4996507;28;20475;-79
2021/01/29 03:41:19;;;;;;;1.57;0.80;;;8.90;99.90;;;9.34;100.00;96279.50;4997925;28;20510;-79
2021/01/29 03:44:05;;;;;;;0.70;0.70;;;8.90;99.90;;;9.37;100.00;96258.19;4996509;28;21011;-80
2021/01/29 03:46:47;;;;;;;1.00;0.70;;;8.90;99.90;;;9.36;100.00;96256.59;4995729;28;20463;-79
2021/01/29 03:49:40;;;;;;;1.10;1.00;;;8.90;99.90;;;9.36;100.00;96251.41;4999311;28;20462;-79
2021/01/29 03:52:18;;;;;;;1.30;0.83;;;8.80;99.90;;;9.39;100.00;96250.94;4999167;28;20475;-80
2021/01/29 03:55:01;;;;;;;1.20;0.83;;;9.00;99.90;;;9.41;100.00;96246.28;5000815;28;20482;-79
2021/01/29 03:57:38;;;;;;;1.13;0.70;;;9.00;99.90;;;9.44;100.00;96240.63;5000958;28;20470;-79
2021/01/29 04:00:23;;;;;;;1.30;0.87;;;9.00;99.90;;;9.47;100.00;96232.38;4999104;28;20446;-79
2021/01/29 04:03:10;;;;;;;1.10;0.97;;;9.00;99.90;;;9.47;100.00;96229.75;5000405;28;20985;-80
2021/01/29 04:05:51;;;;;;;1.40;0.90;;;9.00;99.90;;;9.50;100.00;96215.47;4999349;28;20553;-79
2021/01/29 04:08:27;;;;;;;1.00;0.90;;;9.10;99.90;;;9.52;100.00;96201.16;4999356;28;20460;-79
2021/01/29 04:11:01;;;;;;;0.80;0.80;;;9.20;99.90;;;9.56;100.00;96196.28;5000744;28;20450;-79
2021/01/29 04:13:39;;;;;;;1.43;1.00;;;9.20;99.90;;;9.53;100.00;96189.72;5000386;28;20462;-79
2021/01/29 04:16:12;;;;;;;1.20;1.00;;;9.10;99.90;;;9.56;100.00;96176.22;4999157;28;20459;-80
2021/01/29 04:18:47;;;;;;;2.07;0.90;;;9.10;99.90;;;9.58;100.00;96176.78;5000144;28;20970;-79
2021/01/29 04:21:21;;;;;;;0.80;0.77;;;9.10;99.90;;;9.59;100.00;96167.94;5000827;28;20970;-79
2021/01/29 04:23:55;;;;;;;0.80;0.70;;;9.20;99.90;;;9.60;100.00;96166.91;4998265;28;20490;-79
2021/01/29 04:26:29;;;;;;;1.00;0.80;;;9.20;99.90;;;9.62;100.00;96156.22;4998623;28;20463;-79
2021/01/29 04:29:02;;;;;;;1.77;0.80;;;9.20;99.90;;;9.63;100.00;96130.94;4998847;28;20471;-79
2021/01/29 04:31:34;;;;;;;0.90;0.80;;;9.20;99.90;;;9.64;100.00;96127.31;4999047;28;20459;-80
2021/01/29 04:34:08;;;;;;;1.67;0.90;;;9.20;99.90;;;9.63;100.00;96123.91;5000569;28;20479;-79
2021/01/29 04:36:38;;;;;;;1.07;0.73;;;9.20;99.90;;;9.63;100.00;96117.91;4997803;28;20505;-79
2021/01/29 04:39:14;;;;;;;0.87;0.80;;;9.20;99.90;;;9.64;100.00;96102.03;4999288;28;20607;-79
2021/01/29 04:42:04;;;;;;;0.70;0.60;;;9.20;99.90;;;9.68;100.00;96100.53;4995574;28;20557;-79
2021/01/29 04:45:06;;;;;;;26.60;10.43;;;9.30;99.90;;;9.68;100.00;96108.38;4997232;28;20895;-79
2021/01/29 04:47:46;;;;;;;1.33;0.97;;;9.20;99.90;;;9.66;100.00;96091.34;4996652;28;20479;-79
2021/01/29 04:50:31;;;;;;;1.87;1.00;;;9.20;99.90;;;9.69;100.00;96085.66;4997248;28;20862;-80
2021/01/29 04:53:49;;;;;;;2.50;1.80;;;9.30;99.90;;;9.72;100.00;96085.22;4998862;28;20466;-80
2021/01/29 04:56:52;;;;;;;1.03;0.83;;;9.30;99.90;;;9.76;100.00;96078.50;4998913;28;20455;-82
2021/01/29 04:59:34;;;;;;;1.40;1.03;;;9.40;99.90;;;9.74;100.00;96081.34;4980358;28;20446;-83
2021/01/29 05:02:45;;;;;;;1.37;0.80;;;9.30;99.90;;;9.79;100.00;96072.84;4999680;28;20479;-83
2021/01/29 05:05:47;;;;;;;1.00;0.70;;;9.30;99.90;;;9.75;100.00;96072.50;4998487;28;20830;-82
2021/01/29 05:08:52;;;;;;;0.80;0.70;;;9.30;99.90;;;9.76;100.00;96076.69;4999287;28;20504;-82
2021/01/29 05:11:53;;;;;;;45.67;21.77;;;9.30;99.90;;;9.79;100.00;96070.22;4986043;28;20478;-80
2021/01/29 05:14:55;;;;;;;1.30;1.20;;;9.30;99.90;;;9.83;100.00;96072.13;4999144;28;20459;-82
2021/01/29 05:18:14;;;;;;;7.10;2.40;;;9.40;99.90;;;9.83;100.00;96081.78;5000264;28;20556;-85
2021/01/29 05:21:40;;;;;;;0.80;0.80;;;9.40;99.90;;;9.80;100.00;96098.69;4999339;28;20537;-79
2021/01/29 05:24:52;;;;;;;0.80;0.70;;;9.40;99.90;;;9.80;100.00;96100.50;4998125;28;20505;-81
2021/01/29 05:27:44;;;;;;;1.17;0.70;;;9.40;99.90;;;9.73;100.00;96099.84;4995288;28;20459;-80
2021/01/29 05:30:57;;;;;;;0.77;0.60;;;9.40;99.90;;;9.69;100.00;96094.28;4998051;28;20485;-81
2021/01/29 05:33:54;;;;;;;0.80;0.70;;;9.30;99.90;;;9.65;100.00;96087.16;4999499;28;21250;-81
2021/01/29 05:36:56;;;;;;;0.70;0.70;;;9.30;99.90;;;9.52;100.00;96098.63;5000032;28;20952;-80
2021/01/29 05:39:46;;;;;;;0.70;0.60;;;9.10;99.90;;;9.37;100.00;96091.25;4999862;28;20447;-80
2021/01/29 05:42:55;;;;;;;0.70;0.60;;;8.90;99.90;;;9.37;100.00;96090.47;5001316;28;20487;-80
2021/01/29 05:45:49;;;;;;;0.70;0.67;;;8.90;99.90;;;9.35;100.00;96090.69;5000793;28;20467;-80
2021/01/29 05:49:02;;;;;;;0.80;0.60;;;8.90;99.90;;;9.27;100.00;96105.88;4999492;28;20451;-81
2021/01/29 05:52:07;;;;;;;0.80;0.70;;;8.90;99.90;;;9.09;100.00;96093.75;4986588;28;20452;-80
2021/01/29 05:55:23;;;;;;;0.80;0.70;;;8.60;99.90;;;9.10;100.00;96098.72;5001974;28;20505;-80
2021/01/29 05:58:32;;;;;;;0.70;0.70;;;8.70;99.90;;;9.01;100.00;96126.16;4998227;28;20451;-80
2021/01/29 06:02:00;;;;;;;0.80;0.80;;;8.60;99.90;;;9.03;100.00;96131.13;5001120;28;20460;-80
2021/01/29 06:05:19;;;;;;;0.80;0.70;;;8.60;99.90;;;9.00;100.00;96127.16;5001068;28;20460;-80
2021/01/29 06:08:40;;;;;;;0.80;0.70;;;8.60;99.90;;;8.99;100.00;96148.22;5001609;28;20455;-80
2021/01/29 06:11:54;;;;;;;0.77;0.70;;;8.60;99.90;;;8.95;100.00;96141.91;4963186;28;20451;-80
2021/01/29 06:15:02;;;;;;;0.90;0.70;;;8.50;99.90;;;8.93;100.00;96146.53;4994781;28;20464;-80
2021/01/29 06:18:16;;;;;;;1.03;0.90;;;8.50;99.90;;;8.89;100.00;96161.00;5001312;28;20506;-80
2021/01/29 06:21:31;;;;;;;2.40;0.70;;;8.50;99.90;;;8.90;100.00;96162.63;5000158;28;20463;-80
2021/01/29 06:24:46;;;;;;;0.90;0.77;;;8.40;99.90;;;8.83;100.00;96164.53;4995366;28;20487;-80
2021/01/29 06:28:07;;;;;;;2.20;0.70;;;8.40;99.90;;;8.81;100.00;96185.59;4995941;28;20478;-80
2021/01/29 06:30:55;;;;;;;0.70;0.60;;;8.30;99.90;;;8.81;100.00;96190.81;5001077;28;21011;-80
2021/01/29 06:34:07;;;;;;;1.83;0.70;;;8.30;99.90;;;8.86;100.00;96192.75;5001520;28;20457;-80
2021/01/29 06:37:14;;;;;;;0.83;0.77;;;8.30;99.90;;;8.83;100.00;96204.41;5000133;28;20489;-80
2021/01/29 06:40:13;;;;;;;1.83;0.73;;;8.30;99.90;;;8.81;100.00;96210.88;4994056;28;20460;-80
2021/01/29 06:43:31;;;;;;;0.70;0.60;;;8.30;99.90;;;8.74;100.00;96216.16;5001149;28;20503;-80
2021/01/29 06:46:42;;;;;;;0.80;0.73;;;8.20;99.90;;;8.71;100.00;96205.38;5000141;28;20471;-80
2021/01/29 06:49:38;;;;;;;1.20;0.83;;;8.20;99.90;;;8.66;100.00;96221.66;5000106;28;20456;-80
2021/01/29 06:52:58;;;;;;;0.83;0.70;;;8.20;99.90;;;8.72;100.00;96233.81;4999953;28;20925;-80
2021/01/29 06:56:21;;;;;;;0.80;0.70;;;8.30;99.90;;;8.70;100.00;96235.84;5000617;28;21023;-80
2021/01/29 06:59:20;;;;;;;0.80;0.70;;;8.20;99.90;;;8.71;100.00;96237.44;4983580;28;20537;-80
2021/01/29 07:02:31;;;;;;;0.80;0.80;;;8.20;99.90;;;8.71;100.00;96247.84;5000357;28;20447;-80
2021/01/29 07:05:39;;;;;;;0.80;0.70;;;8.20;99.90;;;8.76;100.00;96240.19;5000042;28;20484;-80
2021/01/29 07:08:25;;;;;;;0.70;0.67;;;8.20;99.90;;;8.77;100.00;96236.56;4998955;28;20458;-80
2021/01/29 07:11:08;;;;;;;0.83;0.70;;;8.30;99.90;;;8.80;100.00;96232.72;5000304;28;20462;-80
2021/01/29 07:14:10;;;;;;;1.80;1.00;;;8.40;99.90;;;8.80;100.00;96248.34;4998330;28;20466;-80
2021/01/29 07:17:05;;;;;;;0.80;0.70;;;8.30;99.90;;;8.82;100.00;96244.50;4984906;28;20468;-80
2021/01/29 07:20:16;;;;;;;0.80;0.70;;;8.40;99.90;;;8.83;100.00;96245.31;4999432;28;20470;-80
2021/01/29 07:23:30;;;;;;;0.80;0.70;;;8.30;99.90;;;8.86;100.00;96255.28;4993479;28;20501;-81
2021/01/29 07:26:23;;;;;;;1.10;0.70;;;8.50;99.90;;;8.87;100.00;96256.88;4996664;28;20462;-80
2021/01/29 07:29:44;;;;;;;0.80;0.70;;;8.50;99.90;;;8.84;100.00;96246.91;5004261;28;20455;-80
2021/01/29 07:32:28;;;;;;;0.70;0.70;;;8.40;99.90;;;8.89;100.00;96254.84;4973965;28;20862;-80
2021/01/29 07:35:07;;;;;;;2.20;1.00;;;8.40;99.90;;;8.92;100.00;96268.22;5004136;28;20494;-80
2021/01/29 07:38:26;;;;;;;1.67;0.87;;;8.30;99.90;;;8.90;100.00;96267.66;5003047;28;20466;-80
2021/01/29 07:41:21;;;;;;;2.30;0.87;;;8.40;99.90;;;8.90;100.00;96259.06;5003632;28;20459;-80
2021/01/29 07:44:05;;;;;;;1.70;0.70;;;8.40;99.90;;;8.88;100.00;96258.50;5003279;28;20508;-80
2021/01/29 07:47:07;;;;;;;0.80;0.73;;;8.30;99.90;;;8.90;100.00;96261.66;5003180;28;20464;-81
2021/01/29 07:50:12;;;;;;;0.80;0.70;;;8.40;99.90;;;8.94;100.00;96281.06;5004099;28;20460;-80
2021/01/29 07:52:52;;;;;;;0.90;0.70;;;8.40;99.90;;;8.96;100.00;96265.97;5003303;28;20454;-80
2021/01/29 07:55:24;;;;;;;0.70;0.70;;;8.50;99.90;;;8.92;100.00;96285.72;5002463;28;20457;-80
2021/01/29 07:58:22;;;;;;;0.80;0.70;;;8.40;99.90;;;8.94;100.00;96292.28;5004173;28;20474;-80
2021/01/29 08:01:15;;;;;;;1.00;0.80;;;8.50;99.90;;;8.91;100.00;96299.75;5004306;28;20508;-80
2021/01/29 08:04:18;;;;;;;1.43;0.70;;;8.40;99.90;;;8.95;100.00;96282.66;5002699;28;20495;-80
2021/01/29 08:06:59;;;;;;;3.80;0.93;;;8.40;99.90;;;8.98;100.00;96296.03;4995964;28;20959;-80
2021/01/29 08:09:33;;;;;;;3.87;1.30;;;8.50;99.90;;;9.03;100.00;96301.38;5002938;28;20891;-80
2021/01/29 08:12:06;;;;;;;1.00;0.80;;;8.60;99.90;;;8.97;100.00;96310.09;5002945;28;20934;-80
2021/01/29 08:15:28;;;;;;;2.40;1.27;;;8.50;99.90;;;9.03;100.00;96304.00;4999835;28;20486;-80
2021/01/29 08:18:27;;;;;;;2.27;1.23;;;8.60;99.90;;;9.07;100.00;96305.16;5003226;28;20444;-80
2021/01/29 08:22:12;;;;;;;4.03;1.03;;;8.60;99.90;;;9.08;100.00;96314.56;5002758;28;20443;-80
2021/01/29 08:25:15;;;;;;;4.50;1.67;;;8.60;99.90;;;9.08;100.00;96316.38;4961886;28;20492;-80
2021/01/29 08:28:36;;;;;;;4.50;1.67;;;8.70;99.90;;;9.02;100.00;96312.81;4956871;28;20554;-80
2021/01/29 08:31:54;;;;;;;5.13;1.50;;;8.50;99.90;;;9.03;100.00;96329.25;5001750;28;20470;-80
2021/01/29 08:35:02;;;;;;;3.03;1.57;;;8.50;99.90;;;9.02;100.00;96330.28;4996944;28;20456;-80
2021/01/29 08:37:46;;;;;;;5.90;1.33;;;8.50;99.90;;;9.02;100.00;96351.16;5002187;28;20451;-80
2021/01/29 08:40:27;;;;;;;12.23;1.80;;;8.60;99.90;;;9.06;100.00;96349.66;5002998;28;20466;-80
2021/01/29 08:43:38;;;;;;;5.33;1.80;;;8.60;99.90;;;9.01;100.00;96355.56;5002881;28;20491;-80
2021/01/29 08:46:40;;;;;;;3.77;1.97;;;8.60;99.90;;;9.09;100.00;96362.28;5002756;28;20456;-80
2021/01/29 08:49:38;;;;;;;2.10;1.47;;;8.60;99.90;;;9.07;100.00;96372.94;5002152;28;20455;-80
2021/01/29 08:52:28;;;;;;;5.87;1.50;;;8.60;99.90;;;9.06;100.00;96376.53;5002279;28;20462;-80
2021/01/29 08:55:15;;;;;;;14.10;2.57;;;8.70;99.90;;;9.06;100.00;96381.75;5001118;28;20972;-80
2021/01/29 08:58:06;;;;;;;6.90;1.73;;;8.60;99.90;;;9.06;100.00;96366.13;5003921;28;20497;-81
2021/01/29 09:00:38;;;;;;;9.03;1.63;;;8.60;99.90;;;9.07;100.00;96387.78;5002137;28;20841;-80
2021/01/29 09:03:23;;;;;;;8.67;1.80;;;8.60;99.90;;;9.08;100.00;96389.38;5003256;28;20499;-80
2021/01/29 09:06:16;;;;;;;9.40;1.80;;;8.60;99.90;;;9.14;100.00;96408.56;5001995;28;20443;-80
2021/01/29 09:08:48;;;;;;;14.03;2.40;;;8.70;99.90;;;9.10;100.00;96397.75;5002361;28;20558;-80
2021/01/29 09:11:26;;;;;;;5.70;1.77;;;8.60;99.90;;;9.14;100.00;96403.34;5002285;28;20482;-80
2021/01/29 09:14:01;;;;;;;7.90;2.17;;;8.60;99.90;;;9.17;100.00;96408.13;5000577;28;20459;-81
2021/01/29 09:16:42;;;;;;;13.80;2.50;;;8.70;99.90;;;9.11;100.00;96391.53;5002771;28;20455;-80
2021/01/29 09:19:17;;;;;;;5.53;1.60;;;8.60;99.90;;;9.09;100.00;96401.41;5001790;28;20546;-80
2021/01/29 09:22:13;;;;;;;7.43;1.43;;;8.50;99.90;;;9.13;100.00;96410.38;5000017;28;20467;-80
2021/01/29 09:24:54;;;;;;;6.30;1.97;;;8.60;99.90;;;9.12;100.00;96411.41;5002657;28;20490;-80
2021/01/29 09:27:44;;;;;;;11.27;2.07;;;8.60;99.90;;;9.16;100.00;96422.19;5002819;28;20562;-80
2021/01/29 09:30:33;;;;;;;12.90;2.30;;;8.60;99.90;;;9.15;100.00;96420.59;4985063;28;20497;-80
2021/01/29 09:33:27;;;;;;;6.70;1.90;;;8.60;99.90;;;9.13;100.00;96433.06;5000646;28;20539;-80
2021/01/29 09:36:12;;;;;;;7.80;2.23;;;8.60;99.90;;;9.16;100.00;96424.78;5000677;28;21008;-80
2021/01/29 09:38:53;;;;;;;16.80;2.50;;;8.70;99.90;;;9.08;100.00;96431.09;5001602;28;20470;-80
2021/01/29 09:41:28;;;;;;;4.13;1.80;;;8.50;99.90;;;9.11;100.00;96435.88;5000247;28;20486;-80
2021/01/29 09:44:04;;;;;;;5.00;1.70;;;8.60;99.90;;;9.11;100.00;96433.25;4998476;28;20506;-80
2021/01/29 09:46:38;;;;;;;5.20;2.17;;;8.60;99.90;;;9.13;100.00;96428.63;4999701;28;20466;-80
2021/01/29 09:49:11;;;;;;;7.43;1.93;;;8.60;99.90;;;9.16;100.00;96412.56;5001135;28;20446;-80
2021/01/29 09:52:19;;;;;;;11.03;2.43;;;8.60;99.90;;;9.23;100.00;96428.94;5001252;28;20462;-80
2021/01/29 09:55:09;;;;;;;8.57;1.57;;;8.70;99.90;;;9.25;100.00;96428.69;5001199;28;20454;-80
2021/01/29 09:57:49;;;;;;;10.60;1.90;;;8.70;99.90;;;9.30;100.00;96415.81;5002498;28;20959;-80
2021/01/29 10:00:22;;;;;;;10.90;2.30;;;8.80;99.90;;;9.33;100.00;96424.00;5001934;28;20447;-80
2021/01/29 10:03:04;;;;;;;3.33;1.37;;;8.90;99.90;;;9.33;100.00;96428.41;5001579;28;20491;-80
2021/01/29 10:05:37;;;;;;;6.30;2.00;;;8.80;99.90;;;9.35;100.00;96432.38;5001246;28;20463;-80
2021/01/29 10:08:15;;;;;;;10.00;1.97;;;8.90;99.90;;;9.38;100.00;96441.56;5000005;28;20443;-80
2021/01/29 10:10:59;;;;;;;5.80;2.63;;;8.90;99.90;;;9.31;100.00;96441.66;5001428;28;20454;-80
2021/01/29 10:13:48;;;;;;;6.40;1.63;;;8.80;99.90;;;9.20;100.00;96434.56;4999515;28;20447;-80
2021/01/29 10:16:28;;;;;;;4.60;1.40;;;8.60;99.90;;;9.21;100.00;96440.56;5002015;28;20546;-80
2021/01/29 10:19:19;;;;;;;7.33;1.70;;;8.60;99.90;;;9.16;100.00;96443.84;5000948;28;20534;-80
2021/01/29 10:22:56;;;;;;;11.07;1.83;;;8.70;99.90;;;9.18;100.00;96438.41;5001231;28;20450;-80
2021/01/29 10:25:45;;;;;;;3.00;1.37;;;8.70;99.90;;;9.22;100.00;96444.78;4980702;28;20451;-80
2021/01/29 10:29:03;;;;;;;3.00;1.33;;;8.80;99.90;;;9.22;100.00;96447.38;5001342;28;20459;-80
2021/01/29 10:31:50;;;;;;;3.40;1.43;;;8.80;99.90;;;9.21;100.00;96451.00;4999909;28;20451;-80
2021/01/29 10:34:32;;;;;;;6.97;2.23;;;8.80;99.90;;;9.19;100.00;96455.66;5000892;28;20497;-80
2021/01/29 10:37:10;;;;;;;6.23;1.70;;;8.70;99.90;;;9.17;100.00;96445.44;5000998;28;20451;-81
2021/01/29 10:40:07;;;;;;;6.90;1.43;;;8.70;99.90;;;9.19;100.00;96453.03;5000066;28;20995;-80
2021/01/29 10:42:50;;;;;;;5.17;1.47;;;8.70;99.90;;;9.23;100.00;96454.22;4999799;28;21161;-80
2021/01/29 10:45:37;;;;;;;3.20;1.40;;;8.80;99.90;;;9.22;100.00;96456.00;4999970;28;20995;-80
2021/01/29 10:48:22;;;;;;;10.70;2.10;;;8.80;99.90;;;9.19;100.00;96464.28;5000538;28;20951;-80
2021/01/29 10:51:02;;;;;;;9.23;1.53;;;8.70;99.90;;;9.18;100.00;96461.88;5000535;28;20451;-80
2021/01/29 10:53:31;;;;;;;14.53;1.67;;;8.70;99.90;;;9.12;100.00;96462.75;4999800;28;20957;-80
2021/01/29 10:56:03;;;;;;;8.00;1.90;;;8.60;99.90;;;9.16;100.00;96454.28;5000736;28;20459;-80
2021/01/29 10:58:52;;;;;;;5.40;2.10;;;8.70;99.90;;;9.20;100.00;96449.44;5001279;28;20456;-80
2021/01/29 11:01:33;;;;;;;3.50;1.70;;;8.70;99.90;;;9.15;100.00;96450.06;4999878;28;20963;-80
2021/01/29 11:04:09;;;;;;;9.70;1.53;;;8.60;99.90;;;9.17;100.00;96461.06;5000678;28;20501;-80
2021/01/29 11:06:45;;;;;;;9.60;1.63;;;8.60;99.90;;;9.17;100.00;96455.06;5000339;28;20443;-81
2021/01/29 11:09:27;;;;;;;9.17;1.70;;;8.60;99.90;;;9.19;100.00;96453.03;4999982;28;20948;-80
2021/01/29 11:12:06;;;;;;;4.73;2.07;;;8.60;99.90;;;9.22;100.00;96453.41;4999811;28;20870;-80
2021/01/29 11:14:43;;;;;;;6.20;1.80;;;8.60;99.90;;;9.27;100.00;96450.94;5000496;28;20467;-81
2021/01/29 11:17:22;;;;;;;7.83;1.70;;;8.80;99.90;;;9.22;100.00;96457.81;4999710;28;20465;-80
2021/01/29 11:19:54;;;;;;;9.83;1.67;;;8.60;99.90;;;9.31;100.00;96449.47;5000153;28;20450;-80
2021/01/29 11:22:40;;;;;;;7.93;2.40;;;8.80;99.90;;;9.33;100.00;96450.06;5000526;28;20944;-80
2021/01/29 11:25:42;;;;;;;10.53;2.43;;;8.80;99.90;;;9.38;100.00;96452.81;4999480;28;20577;-80
2021/01/29 11:28:36;;;;;;;9.23;2.00;;;8.90;99.90;;;9.42;100.00;96453.16;5000189;28;20451;-81
2021/01/29 11:31:14;;;;;;;8.77;2.10;;;9.00;99.90;;;9.43;100.00;96455.56;4997651;28;20491;-80
2021/01/29 11:33:47;;;;;;;10.50;2.03;;;9.00;99.90;;;9.45;100.00;96447.50;4999292;28;20464;-80
2021/01/29 11:36:33;;;;;;;8.57;1.87;;;9.10;99.90;;;9.48;100.00;96452.28;5000687;28;20451;-80
2021/01/29 11:39:17;;;;;;;10.93;4.03;;;9.10;99.90;;;9.39;100.00;96466.66;5000037;28;20455;-80
2021/01/29 11:42:01;;;;;;;6.30;1.60;;;8.90;99.90;;;9.40;100.00;96463.84;4999849;28;20467;-81
2021/01/29 11:44:43;;;;;;;8.90;1.73;;;9.00;99.90;;;9.43;100.00;96439.13;4999592;28;20507;-81
2021/01/29 11:47:30;;;;;;;8.93;2.00;;;9.00;99.90;;;9.37;100.00;96434.78;5000418;28;20488;-80
2021/01/29 11:50:12;;;;;;;8.67;2.10;;;8.90;99.90;;;9.25;100.00;96447.75;4999886;28;20455;-80